Dobrodošli na spletni strani vremenske postaje Senovo. Vse informacije so informativnega značaja, saj vremenska postaja ni del državne mreže meteoroloških postaj. AKTUALNIH OBVESTIL NI.


Sneg/Led Od: 22-02-2018 00:00 Do: 23-02-2018 23:59 Opozorilo za: Sneg/Led Stopnja: Rumena info button
Veter Od: 22-02-2018 00:00 Do: 23:59 Opozorilo za: Veter Stopnja: Rumena info button

Pogled proti Armezu več informacij Pogled proti Armezu


Lisca več informacij Lisca


Radar strel več informacij blitzortung!


opozorilo za sneg/led več informacij rain snow radar


Obiščite še:

Template documentation
and downloads

And another site



Weather Underground, zgodovina - Tekstovno

Dnevni povzetek za Januar 7, 2018 Enote:  Obe    Angleško   Metrično
« Predhodni Dan
Naslednji Dan »
Dnevni Tedenski Mesečni Letni Po meri
  Višja: Nižja: Povprečje:
Temperatura: TemperatureC °F /  -17.8 °C 3.3 °F /  -15.9 °C 7.1 °F /  -13.8 °C
Točka rosišča: DewpointC °F /  -17.8 °C 2.7 °F /  -16.3 °C 6 °F /  -14.4 °C
Vlažnost: Humidity % 83 % 93 %
Hitrost vetra: WindSpeedKMH mph /  0 km/h - 0.5 mph /  0.8 km/h
Sunki vetra: WindSpeedGustKMH mph /  0 km/h - -
Veter:- - SW
Zračni tlak: PressurehPa in /  0 hPa 1013.1 in /  34303.6 hPa -
Padavine: 0.0 in /  0 mm    
Historical Graphs
 
 
Tabelarni podarki za Januar 7, 2018
Čas Temperatura Točka rosišča Zračni tlak Veter Hitrost vetra Sunki vetra Vlažnost Intenziteta padavin (urna)
TemperatureC °F /  -17.8 °C DewpointC °F /  -17.8 °C PressurehPa in /  0 hPa Calm     Humidity % HourlyPrecipMM in /  0 mm
00:00 6.5 °F /  -14.2 °C 5.4 °F /  -14.8 °C 1013.1 in /  34303.6 hPa NW 1.0 mph /  1.6 km/h 5.0 mph /  8 km/h 93 % 0.0 in /  0 mm
00:05 6.5 °F /  -14.2 °C 5.4 °F /  -14.8 °C 1013.1 in /  34303.6 hPa NW 1.4 mph /  2.3 km/h 5.0 mph /  8 km/h 93 % 0.0 in /  0 mm
00:09 6.4 °F /  -14.2 °C 5.3 °F /  -14.8 °C 1013.1 in /  34303.6 hPa NW 1.1 mph /  1.8 km/h 5.0 mph /  8 km/h 93 % 0.0 in /  0 mm
00:14 6.3 °F /  -14.3 °C 5.3 °F /  -14.8 °C 1013.1 in /  34303.6 hPa Calm     93 % 0.0 in /  0 mm
00:17 6.2 °F /  -14.3 °C 5.2 °F /  -14.9 °C 1013.1 in /  34303.6 hPa Calm   1.8 mph /  2.9 km/h 93 % 0.0 in /  0 mm
00:22 6.1 °F /  -14.4 °C 5.1 °F /  -14.9 °C 1013.1 in /  34303.6 hPa Calm   1.8 mph /  2.9 km/h 93 % 0.0 in /  0 mm
00:26 6.1 °F /  -14.4 °C 5.1 °F /  -14.9 °C 1013.1 in /  34303.6 hPa Calm     93 % 0.0 in /  0 mm
00:31 6.0 °F /  -14.4 °C 4.9 °F /  -15.1 °C 1013.1 in /  34303.6 hPa NW 0.2 mph /  0.3 km/h 3.2 mph /  5.1 km/h 93 % 0.0 in /  0 mm
00:36 6.1 °F /  -14.4 °C 5.1 °F /  -14.9 °C 1013.1 in /  34303.6 hPa NW 0.3 mph /  0.5 km/h 3.2 mph /  5.1 km/h 93 % 0.0 in /  0 mm
00:41 6.0 °F /  -14.4 °C 4.9 °F /  -15.1 °C 1013.1 in /  34303.6 hPa Calm     93 % 0.0 in /  0 mm
00:47 5.8 °F /  -14.6 °C 4.9 °F /  -15.1 °C 1013.1 in /  34303.6 hPa Calm     94 % 0.0 in /  0 mm
00:49 5.8 °F /  -14.6 °C 4.9 °F /  -15.1 °C 1013.1 in /  34303.6 hPa Calm     94 % 0.0 in /  0 mm
00:55 5.6 °F /  -14.7 °C 4.6 °F /  -15.2 °C 1013.1 in /  34303.6 hPa Calm     93 % 0.0 in /  0 mm
01:05 5.4 °F /  -14.8 °C 4.5 °F /  -15.3 °C 1014.1 in /  34337.4 hPa Calm     94 % 0.0 in /  0 mm
01:10 5.3 °F /  -14.8 °C 4.4 °F /  -15.3 °C 1014.1 in /  34337.4 hPa Calm     94 % 0.0 in /  0 mm
01:16 5.2 °F /  -14.9 °C 4.3 °F /  -15.4 °C 1014.1 in /  34337.4 hPa Calm   1.4 mph /  2.3 km/h 94 % 0.0 in /  0 mm
01:21 5.0 °F /  -15 °C 4.1 °F /  -15.5 °C 1014.1 in /  34337.4 hPa Calm   1.4 mph /  2.3 km/h 94 % 0.0 in /  0 mm
01:26 5.0 °F /  -15 °C 4.1 °F /  -15.5 °C 1014.1 in /  34337.4 hPa NW 0.5 mph /  0.8 km/h 4.0 mph /  6.4 km/h 94 % 0.0 in /  0 mm
01:31 4.9 °F /  -15.1 °C 4.0 °F /  -15.6 °C 1014.1 in /  34337.4 hPa NW 0.6 mph /  1 km/h 4.0 mph /  6.4 km/h 94 % 0.0 in /  0 mm
01:36 4.8 °F /  -15.1 °C 3.9 °F /  -15.6 °C 1014.1 in /  34337.4 hPa Calm     94 % 0.0 in /  0 mm
01:41 4.8 °F /  -15.1 °C 3.9 °F /  -15.6 °C 1014.1 in /  34337.4 hPa Calm     94 % 0.0 in /  0 mm
01:42 4.9 °F /  -15.1 °C 4.0 °F /  -15.6 °C 1014.1 in /  34337.4 hPa Calm     94 % 0.0 in /  0 mm
01:47 4.7 °F /  -15.2 °C 3.8 °F /  -15.7 °C 1014.1 in /  34337.4 hPa NNW 0.3 mph /  0.5 km/h 3.2 mph /  5.1 km/h 94 % 0.0 in /  0 mm
01:48 4.7 °F /  -15.2 °C 3.8 °F /  -15.7 °C 1014.1 in /  34337.4 hPa NNW 0.3 mph /  0.5 km/h 3.2 mph /  5.1 km/h 94 % 0.0 in /  0 mm
01:54 4.6 °F /  -15.2 °C 3.7 °F /  -15.7 °C 1014.1 in /  34337.4 hPa NNW 0.6 mph /  1 km/h 3.2 mph /  5.1 km/h 94 % 0.0 in /  0 mm
01:57 4.6 °F /  -15.2 °C 3.7 °F /  -15.7 °C 1014.1 in /  34337.4 hPa NNW 0.3 mph /  0.5 km/h 1.8 mph /  2.9 km/h 94 % 0.0 in /  0 mm
02:00 4.6 °F /  -15.2 °C 3.7 °F /  -15.7 °C 1014.1 in /  34337.4 hPa North 0.2 mph /  0.3 km/h   94 % 0.0 in /  0 mm
02:05 4.4 °F /  -15.3 °C 3.5 °F /  -15.8 °C 1014.1 in /  34337.4 hPa Calm     94 % 0.0 in /  0 mm
02:10 4.3 °F /  -15.4 °C 3.4 °F /  -15.9 °C 1014.1 in /  34337.4 hPa Calm     94 % 0.0 in /  0 mm
02:11 4.3 °F /  -15.4 °C 3.4 °F /  -15.9 °C 1014.1 in /  34337.4 hPa Calm     94 % 0.0 in /  0 mm
02:16 4.2 °F /  -15.4 °C 3.3 °F /  -15.9 °C 1015.1 in /  34371.3 hPa Calm     94 % 0.0 in /  0 mm
02:22 4.1 °F /  -15.5 °C 3.2 °F /  -16 °C 1015.1 in /  34371.3 hPa Calm     94 % 0.0 in /  0 mm
02:26 4.0 °F /  -15.6 °C 3.1 °F /  -16.1 °C 1015.1 in /  34371.3 hPa Calm     94 % 0.0 in /  0 mm
02:29 4.0 °F /  -15.6 °C 3.1 °F /  -16.1 °C 1015.1 in /  34371.3 hPa Calm     94 % 0.0 in /  0 mm
02:34 3.9 °F /  -15.6 °C 3.2 °F /  -16 °C 1015.1 in /  34371.3 hPa Calm     95 % 0.0 in /  0 mm
02:44 3.8 °F /  -15.7 °C 3.1 °F /  -16.1 °C 1015.1 in /  34371.3 hPa SW 0.2 mph /  0.3 km/h 3.2 mph /  5.1 km/h 95 % 0.0 in /  0 mm
02:49 3.7 °F /  -15.7 °C 3.0 °F /  -16.1 °C 1015.1 in /  34371.3 hPa North 0.2 mph /  0.3 km/h   95 % 0.0 in /  0 mm
02:53 3.7 °F /  -15.7 °C 3.0 °F /  -16.1 °C 1015.1 in /  34371.3 hPa Calm     95 % 0.0 in /  0 mm
02:59 3.7 °F /  -15.7 °C 3.0 °F /  -16.1 °C 1015.1 in /  34371.3 hPa Calm     95 % 0.0 in /  0 mm
03:04 3.6 °F /  -15.8 °C 2.9 °F /  -16.2 °C 1015.1 in /  34371.3 hPa Calm     95 % 0.0 in /  0 mm
03:09 3.6 °F /  -15.8 °C 2.9 °F /  -16.2 °C 1015.1 in /  34371.3 hPa Calm     95 % 0.0 in /  0 mm
03:12 3.6 °F /  -15.8 °C 2.9 °F /  -16.2 °C 1015.1 in /  34371.3 hPa Calm     95 % 0.0 in /  0 mm
03:17 3.6 °F /  -15.8 °C 2.9 °F /  -16.2 °C 1015.1 in /  34371.3 hPa Calm     95 % 0.0 in /  0 mm
03:22 3.6 °F /  -15.8 °C 2.9 °F /  -16.2 °C 1015.1 in /  34371.3 hPa Calm     95 % 0.0 in /  0 mm
03:24 3.6 °F /  -15.8 °C 2.9 °F /  -16.2 °C 1015.1 in /  34371.3 hPa Calm     95 % 0.0 in /  0 mm
03:29 3.4 °F /  -15.9 °C 2.7 °F /  -16.3 °C 1015.1 in /  34371.3 hPa Calm     95 % 0.0 in /  0 mm
03:32 3.4 °F /  -15.9 °C 2.7 °F /  -16.3 °C 1015.1 in /  34371.3 hPa Calm     95 % 0.0 in /  0 mm
03:37 3.4 °F /  -15.9 °C 2.7 °F /  -16.3 °C 1015.1 in /  34371.3 hPa Calm     95 % 0.0 in /  0 mm
03:38 3.4 °F /  -15.9 °C 2.7 °F /  -16.3 °C 1015.1 in /  34371.3 hPa Calm     95 % 0.0 in /  0 mm
03:43 3.4 °F /  -15.9 °C 2.7 °F /  -16.3 °C 1015.1 in /  34371.3 hPa Calm     95 % 0.0 in /  0 mm
03:44 3.5 °F /  -15.8 °C 2.8 °F /  -16.2 °C 1015.1 in /  34371.3 hPa Calm     95 % 0.0 in /  0 mm
03:49 3.4 °F /  -15.9 °C 2.7 °F /  -16.3 °C 1015.1 in /  34371.3 hPa NW 0.5 mph /  0.8 km/h 4.0 mph /  6.4 km/h 95 % 0.0 in /  0 mm
03:53 3.4 °F /  -15.9 °C 2.7 °F /  -16.3 °C 1015.1 in /  34371.3 hPa NW 0.6 mph /  1 km/h 4.0 mph /  6.4 km/h 95 % 0.0 in /  0 mm
03:58 3.4 °F /  -15.9 °C 2.7 °F /  -16.3 °C 1015.1 in /  34371.3 hPa NNW 0.6 mph /  1 km/h 4.0 mph /  6.4 km/h 95 % 0.0 in /  0 mm
04:03 3.6 °F /  -15.8 °C 2.9 °F /  -16.2 °C 1015.1 in /  34371.3 hPa Calm     95 % 0.0 in /  0 mm
04:11 3.6 °F /  -15.8 °C 3.0 °F /  -16.1 °C 1015.1 in /  34371.3 hPa Calm     96 % 0.0 in /  0 mm
04:16 3.6 °F /  -15.8 °C 3.0 °F /  -16.1 °C 1014.1 in /  34337.4 hPa Calm     96 % 0.0 in /  0 mm
04:20 3.6 °F /  -15.8 °C 3.0 °F /  -16.1 °C 1014.1 in /  34337.4 hPa Calm     96 % 0.0 in /  0 mm
04:25 3.6 °F /  -15.8 °C 3.0 °F /  -16.1 °C 1014.1 in /  34337.4 hPa Calm     96 % 0.0 in /  0 mm
04:28 3.6 °F /  -15.8 °C 3.0 °F /  -16.1 °C 1015.1 in /  34371.3 hPa Calm     96 % 0.0 in /  0 mm
04:34 3.6 °F /  -15.8 °C 3.0 °F /  -16.1 °C 1015.1 in /  34371.3 hPa Calm     96 % 0.0 in /  0 mm
04:39 3.6 °F /  -15.8 °C 3.0 °F /  -16.1 °C 1015.1 in /  34371.3 hPa Calm     96 % 0.0 in /  0 mm
04:50 3.6 °F /  -15.8 °C 3.0 °F /  -16.1 °C 1014.1 in /  34337.4 hPa Calm     96 % 0.0 in /  0 mm
04:55 3.6 °F /  -15.8 °C 3.0 °F /  -16.1 °C 1014.1 in /  34337.4 hPa Calm     96 % 0.0 in /  0 mm
05:01 3.5 °F /  -15.8 °C 2.9 °F /  -16.2 °C 1014.1 in /  34337.4 hPa Calm     96 % 0.0 in /  0 mm
05:06 3.4 °F /  -15.9 °C 2.8 °F /  -16.2 °C 1014.1 in /  34337.4 hPa Calm     96 % 0.0 in /  0 mm
05:08 3.4 °F /  -15.9 °C 2.8 °F /  -16.2 °C 1014.1 in /  34337.4 hPa Calm     96 % 0.0 in /  0 mm
05:13 3.4 °F /  -15.9 °C 2.8 °F /  -16.2 °C 1015.1 in /  34371.3 hPa Calm     96 % 0.0 in /  0 mm
05:16 3.4 °F /  -15.9 °C 2.8 °F /  -16.2 °C 1015.1 in /  34371.3 hPa Calm   1.4 mph /  2.3 km/h 96 % 0.0 in /  0 mm
05:21 3.3 °F /  -15.9 °C 2.7 °F /  -16.3 °C 1015.1 in /  34371.3 hPa WNW 0.8 mph /  1.3 km/h 4.7 mph /  7.6 km/h 96 % 0.0 in /  0 mm
05:26 3.3 °F /  -15.9 °C 2.7 °F /  -16.3 °C 1015.1 in /  34371.3 hPa NW 2.1 mph /  3.4 km/h 4.7 mph /  7.6 km/h 96 % 0.0 in /  0 mm
05:32 3.3 °F /  -15.9 °C 2.7 °F /  -16.3 °C 1015.1 in /  34371.3 hPa NW 1.3 mph /  2.1 km/h 4.3 mph /  6.9 km/h 96 % 0.0 in /  0 mm
05:39 3.4 °F /  -15.9 °C 2.8 °F /  -16.2 °C 1015.1 in /  34371.3 hPa Calm     96 % 0.0 in /  0 mm
05:40 3.4 °F /  -15.9 °C 2.8 °F /  -16.2 °C 1015.1 in /  34371.3 hPa Calm     96 % 0.0 in /  0 mm
05:45 3.4 °F /  -15.9 °C 2.8 °F /  -16.2 °C 1016.1 in /  34405.1 hPa Calm     96 % 0.0 in /  0 mm
05:50 3.6 °F /  -15.8 °C 3.0 °F /  -16.1 °C 1016.1 in /  34405.1 hPa Calm     96 % 0.0 in /  0 mm
05:56 3.7 °F /  -15.7 °C 3.1 °F /  -16.1 °C 1016.1 in /  34405.1 hPa Calm     96 % 0.0 in /  0 mm
05:59 3.7 °F /  -15.7 °C 3.1 °F /  -16.1 °C 1016.1 in /  34405.1 hPa Calm     96 % 0.0 in /  0 mm
06:04 3.8 °F /  -15.7 °C 3.2 °F /  -16 °C 1016.1 in /  34405.1 hPa Calm     96 % 0.0 in /  0 mm
06:07 3.8 °F /  -15.7 °C 3.2 °F /  -16 °C 1016.1 in /  34405.1 hPa Calm     96 % 0.0 in /  0 mm
06:12 3.9 °F /  -15.6 °C 3.4 °F /  -15.9 °C 1016.1 in /  34405.1 hPa Calm     97 % 0.0 in /  0 mm
06:17 4.0 °F /  -15.6 °C 3.4 °F /  -15.9 °C 1016.1 in /  34405.1 hPa Calm     96 % 0.0 in /  0 mm
06:23 4.1 °F /  -15.5 °C 3.5 °F /  -15.8 °C 1016.1 in /  34405.1 hPa Calm     96 % 0.0 in /  0 mm
06:28 4.2 °F /  -15.4 °C 3.6 °F /  -15.8 °C 1016.1 in /  34405.1 hPa Calm     96 % 0.0 in /  0 mm
06:30 4.2 °F /  -15.4 °C 3.6 °F /  -15.8 °C 1016.1 in /  34405.1 hPa Calm     96 % 0.0 in /  0 mm
06:35 4.2 °F /  -15.4 °C 3.6 °F /  -15.8 °C 1016.1 in /  34405.1 hPa NNW 0.3 mph /  0.5 km/h 3.2 mph /  5.1 km/h 96 % 0.0 in /  0 mm
06:40 4.2 °F /  -15.4 °C 3.6 °F /  -15.8 °C 1016.1 in /  34405.1 hPa NNW 0.3 mph /  0.5 km/h 3.2 mph /  5.1 km/h 96 % 0.0 in /  0 mm
06:45 4.1 °F /  -15.5 °C 3.5 °F /  -15.8 °C 1016.1 in /  34405.1 hPa Calm   1.4 mph /  2.3 km/h 96 % 0.0 in /  0 mm
06:50 4.1 °F /  -15.5 °C 3.5 °F /  -15.8 °C 1016.1 in /  34405.1 hPa Calm   1.4 mph /  2.3 km/h 96 % 0.0 in /  0 mm
06:55 4.1 °F /  -15.5 °C 3.5 °F /  -15.8 °C 1016.1 in /  34405.1 hPa Calm     96 % 0.0 in /  0 mm
07:00 4.1 °F /  -15.5 °C 3.5 °F /  -15.8 °C 1016.1 in /  34405.1 hPa Calm     96 % 0.0 in /  0 mm
07:05 4.1 °F /  -15.5 °C 3.5 °F /  -15.8 °C 1016.1 in /  34405.1 hPa Calm     96 % 0.0 in /  0 mm
07:10 4.1 °F /  -15.5 °C 3.7 °F /  -15.7 °C 1016.1 in /  34405.1 hPa Calm     97 % 0.0 in /  0 mm
07:16 4.1 °F /  -15.5 °C 3.7 °F /  -15.7 °C 1016.8 in /  34428.8 hPa Calm     97 % 0.0 in /  0 mm
07:21 4.1 °F /  -15.5 °C 3.7 °F /  -15.7 °C 1016.8 in /  34428.8 hPa Calm     97 % 0.0 in /  0 mm
07:26 4.1 °F /  -15.5 °C 3.7 °F /  -15.7 °C 1016.8 in /  34428.8 hPa Calm     97 % 0.0 in /  0 mm
07:31 4.2 °F /  -15.4 °C 3.8 °F /  -15.7 °C 1016.8 in /  34428.8 hPa Calm     97 % 0.0 in /  0 mm
07:36 4.2 °F /  -15.4 °C 3.8 °F /  -15.7 °C 1016.8 in /  34428.8 hPa Calm     97 % 0.0 in /  0 mm
07:38 4.2 °F /  -15.4 °C 3.8 °F /  -15.7 °C 1016.8 in /  34428.8 hPa Calm     97 % 0.0 in /  0 mm
07:44 4.3 °F /  -15.4 °C 3.9 °F /  -15.6 °C 1016.8 in /  34428.8 hPa Calm     97 % 0.0 in /  0 mm
07:46 4.3 °F /  -15.4 °C 3.9 °F /  -15.6 °C 1016.8 in /  34428.8 hPa Calm     97 % 0.0 in /  0 mm
07:51 4.4 °F /  -15.3 °C 3.9 °F /  -15.6 °C 1016.8 in /  34428.8 hPa Calm     97 % 0.0 in /  0 mm
07:56 4.5 °F /  -15.3 °C 4.1 °F /  -15.5 °C 1016.8 in /  34428.8 hPa Calm     97 % 0.0 in /  0 mm
08:02 4.6 °F /  -15.2 °C 4.2 °F /  -15.4 °C 1016.1 in /  34405.1 hPa Calm     97 % 0.0 in /  0 mm
08:05 4.6 °F /  -15.2 °C 4.2 °F /  -15.4 °C 1016.1 in /  34405.1 hPa Calm     97 % 0.0 in /  0 mm
08:09 4.7 °F /  -15.2 °C 4.3 °F /  -15.4 °C 1016.1 in /  34405.1 hPa Calm     97 % 0.0 in /  0 mm
08:15 4.8 °F /  -15.1 °C 4.4 °F /  -15.3 °C 1016.8 in /  34428.8 hPa Calm     97 % 0.0 in /  0 mm
08:16 4.8 °F /  -15.1 °C 4.4 °F /  -15.3 °C 1016.8 in /  34428.8 hPa Calm     97 % 0.0 in /  0 mm
08:21 5.0 °F /  -15 °C 4.6 °F /  -15.2 °C 1016.8 in /  34428.8 hPa ESE 0.8 mph /  1.3 km/h 4.0 mph /  6.4 km/h 97 % 0.0 in /  0 mm
08:22 5.0 °F /  -15 °C 4.6 °F /  -15.2 °C 1016.8 in /  34428.8 hPa ESE 0.8 mph /  1.3 km/h 4.0 mph /  6.4 km/h 97 % 0.0 in /  0 mm
08:28 5.1 °F /  -14.9 °C 4.7 °F /  -15.2 °C 1016.8 in /  34428.8 hPa ESE 0.6 mph /  1 km/h 4.0 mph /  6.4 km/h 97 % 0.0 in /  0 mm
08:33 5.2 °F /  -14.9 °C 4.8 °F /  -15.1 °C 1016.8 in /  34428.8 hPa Calm     97 % 0.0 in /  0 mm
08:38 5.3 °F /  -14.8 °C 4.9 °F /  -15.1 °C 1016.8 in /  34428.8 hPa Calm     97 % 0.0 in /  0 mm
08:43 5.3 °F /  -14.8 °C 4.9 °F /  -15.1 °C 1018.2 in /  34476.3 hPa Calm     97 % 0.0 in /  0 mm
08:48 5.4 °F /  -14.8 °C 4.9 °F /  -15.1 °C 1018.2 in /  34476.3 hPa Calm     97 % 0.0 in /  0 mm
08:53 5.5 °F /  -14.7 °C 5.1 °F /  -14.9 °C 1018.2 in /  34476.3 hPa Calm     97 % 0.0 in /  0 mm
08:58 5.6 °F /  -14.7 °C 5.2 °F /  -14.9 °C 1018.8 in /  34496.6 hPa Calm     97 % 0.0 in /  0 mm
08:59 5.6 °F /  -14.7 °C 5.2 °F /  -14.9 °C 1018.8 in /  34496.6 hPa Calm     97 % 0.0 in /  0 mm
09:04 5.6 °F /  -14.7 °C 5.2 °F /  -14.9 °C 1018.8 in /  34496.6 hPa Calm     97 % 0.0 in /  0 mm
09:06 5.7 °F /  -14.6 °C 5.3 °F /  -14.8 °C 1018.8 in /  34496.6 hPa Calm     97 % 0.0 in /  0 mm
09:11 5.8 °F /  -14.6 °C 5.3 °F /  -14.8 °C 1018.8 in /  34496.6 hPa Calm     97 % 0.0 in /  0 mm
09:16 5.9 °F /  -14.5 °C 5.4 °F /  -14.8 °C 1018.8 in /  34496.6 hPa Calm   4.3 mph /  6.9 km/h 97 % 0.0 in /  0 mm
09:18 5.9 °F /  -14.5 °C 5.4 °F /  -14.8 °C 1018.8 in /  34496.6 hPa ESE 0.2 mph /  0.3 km/h 4.3 mph /  6.9 km/h 97 % 0.0 in /  0 mm
09:28 6.2 °F /  -14.3 °C 5.8 °F /  -14.6 °C 1018.8 in /  34496.6 hPa ESE 0.3 mph /  0.5 km/h 2.6 mph /  4.2 km/h 97 % 0.0 in /  0 mm
09:33 6.4 °F /  -14.2 °C 5.9 °F /  -14.5 °C 1018.8 in /  34496.6 hPa SW 0.5 mph /  0.8 km/h 4.3 mph /  6.9 km/h 97 % 0.0 in /  0 mm
09:38 6.7 °F /  -14.1 °C 6.3 °F /  -14.3 °C 1018.8 in /  34496.6 hPa SW 1.3 mph /  2.1 km/h 4.3 mph /  6.9 km/h 97 % 0.0 in /  0 mm
09:43 6.8 °F /  -14 °C 6.3 °F /  -14.3 °C 1018.2 in /  34476.3 hPa SW 0.8 mph /  1.3 km/h 4.3 mph /  6.9 km/h 97 % 0.0 in /  0 mm
09:44 6.9 °F /  -13.9 °C 6.4 °F /  -14.2 °C 1018.2 in /  34476.3 hPa North 0.2 mph /  0.3 km/h   97 % 0.0 in /  0 mm
09:47 7.0 °F /  -13.9 °C 6.6 °F /  -14.1 °C 1018.2 in /  34476.3 hPa Calm     97 % 0.0 in /  0 mm
09:52 7.1 °F /  -13.8 °C 6.7 °F /  -14.1 °C 1018.2 in /  34476.3 hPa SE 0.6 mph /  1 km/h 4.3 mph /  6.9 km/h 97 % 0.0 in /  0 mm
09:54 7.1 °F /  -13.8 °C 6.7 °F /  -14.1 °C 1018.2 in /  34476.3 hPa SE 0.8 mph /  1.3 km/h 4.3 mph /  6.9 km/h 97 % 0.0 in /  0 mm
09:59 7.3 °F /  -13.7 °C 6.8 °F /  -14 °C 1018.8 in /  34496.6 hPa SSE 0.6 mph /  1 km/h 4.3 mph /  6.9 km/h 97 % 0.0 in /  0 mm
10:04 7.5 °F /  -13.6 °C 7.1 °F /  -13.8 °C 1018.8 in /  34496.6 hPa Calm     97 % 0.0 in /  0 mm
10:09 7.7 °F /  -13.5 °C 7.3 °F /  -13.7 °C 1018.8 in /  34496.6 hPa Calm   2.1 mph /  3.4 km/h 97 % 0.0 in /  0 mm
10:13 7.8 °F /  -13.4 °C 7.3 °F /  -13.7 °C 1018.8 in /  34496.6 hPa Calm   2.1 mph /  3.4 km/h 97 % 0.0 in /  0 mm
10:19 8.0 °F /  -13.3 °C 7.6 °F /  -13.6 °C 1018.8 in /  34496.6 hPa Calm     97 % 0.0 in /  0 mm
10:21 8.1 °F /  -13.3 °C 7.7 °F /  -13.5 °C 1018.8 in /  34496.6 hPa Calm     97 % 0.0 in /  0 mm
10:27 8.3 °F /  -13.2 °C 7.8 °F /  -13.4 °C 1018.8 in /  34496.6 hPa Calm     97 % 0.0 in /  0 mm
10:32 8.4 °F /  -13.1 °C 7.9 °F /  -13.4 °C 1018.8 in /  34496.6 hPa SE 1.0 mph /  1.6 km/h 4.3 mph /  6.9 km/h 97 % 0.0 in /  0 mm
10:36 8.5 °F /  -13.1 °C 8.1 °F /  -13.3 °C 1018.8 in /  34496.6 hPa SE 1.4 mph /  2.3 km/h 4.3 mph /  6.9 km/h 97 % 0.0 in /  0 mm
10:41 8.6 °F /  -13 °C 8.2 °F /  -13.2 °C 1018.8 in /  34496.6 hPa SSE 0.8 mph /  1.3 km/h 3.2 mph /  5.1 km/h 97 % 0.0 in /  0 mm
10:42 8.7 °F /  -12.9 °C 8.4 °F /  -13.1 °C 1018.8 in /  34496.6 hPa SSE 0.5 mph /  0.8 km/h 3.2 mph /  5.1 km/h 98 % 0.0 in /  0 mm
10:47 8.8 °F /  -12.9 °C 8.5 °F /  -13.1 °C 1018.8 in /  34496.6 hPa Calm     98 % 0.0 in /  0 mm
10:52 8.9 °F /  -12.8 °C 8.6 °F /  -13 °C 1018.8 in /  34496.6 hPa Calm     98 % 0.0 in /  0 mm
10:53 9.0 °F /  -12.8 °C 8.6 °F /  -13 °C 1018.8 in /  34496.6 hPa Calm     97 % 0.0 in /  0 mm
10:58 9.1 °F /  -12.7 °C 8.7 °F /  -12.9 °C 1018.8 in /  34496.6 hPa Calm     97 % 0.0 in /  0 mm
11:01 9.2 °F /  -12.7 °C 8.7 °F /  -12.9 °C 1018.8 in /  34496.6 hPa Calm     97 % 0.0 in /  0 mm
11:06 9.4 °F /  -12.6 °C 9.1 °F /  -12.7 °C 1018.8 in /  34496.6 hPa Calm     98 % 0.0 in /  0 mm
11:11 9.6 °F /  -12.4 °C 9.3 °F /  -12.6 °C 1018.8 in /  34496.6 hPa SSE 0.3 mph /  0.5 km/h 4.0 mph /  6.4 km/h 98 % 0.0 in /  0 mm
11:13 9.6 °F /  -12.4 °C 9.3 °F /  -12.6 °C 1018.8 in /  34496.6 hPa SE 1.1 mph /  1.8 km/h 4.7 mph /  7.6 km/h 98 % 0.0 in /  0 mm
11:18 9.8 °F /  -12.3 °C 9.5 °F /  -12.5 °C 1018.8 in /  34496.6 hPa SE 2.3 mph /  3.7 km/h 4.7 mph /  7.6 km/h 98 % 0.0 in /  0 mm
11:24 10.1 °F /  -12.2 °C 9.7 °F /  -12.4 °C 1018.8 in /  34496.6 hPa SE 1.6 mph /  2.6 km/h 4.0 mph /  6.4 km/h 97 % 0.0 in /  0 mm
11:25 10.1 °F /  -12.2 °C 9.7 °F /  -12.4 °C 1018.8 in /  34496.6 hPa SE 1.3 mph /  2.1 km/h 4.0 mph /  6.4 km/h 97 % 0.0 in /  0 mm
11:30 10.5 °F /  -11.9 °C 10.2 °F /  -12.1 °C 1018.8 in /  34496.6 hPa SE 0.5 mph /  0.8 km/h 3.2 mph /  5.1 km/h 98 % 0.0 in /  0 mm
11:35 10.9 °F /  -11.7 °C 10.6 °F /  -11.9 °C 1018.8 in /  34496.6 hPa SSE 0.6 mph /  1 km/h 4.0 mph /  6.4 km/h 98 % 0.0 in /  0 mm
11:37 11.0 °F /  -11.7 °C 10.6 °F /  -11.9 °C 1018.8 in /  34496.6 hPa SSE 1.3 mph /  2.1 km/h 4.0 mph /  6.4 km/h 97 % 0.0 in /  0 mm
11:43 11.1 °F /  -11.6 °C 10.7 °F /  -11.8 °C 1018.2 in /  34476.3 hPa SSE 1.9 mph /  3.1 km/h 4.0 mph /  6.4 km/h 97 % 0.0 in /  0 mm
11:48 11.4 °F /  -11.4 °C 10.9 °F /  -11.7 °C 1018.2 in /  34476.3 hPa SE 1.6 mph /  2.6 km/h 4.0 mph /  6.4 km/h 97 % 0.0 in /  0 mm
11:53 11.5 °F /  -11.4 °C 11.1 °F /  -11.6 °C 1018.2 in /  34476.3 hPa ESE 2.6 mph /  4.2 km/h 4.3 mph /  6.9 km/h 97 % 0.0 in /  0 mm
11:57 11.6 °F /  -11.3 °C 11.2 °F /  -11.6 °C 1018.2 in /  34476.3 hPa SE 2.9 mph /  4.7 km/h 4.7 mph /  7.6 km/h 97 % 0.0 in /  0 mm
12:02 11.7 °F /  -11.3 °C 11.2 °F /  -11.6 °C 1018.8 in /  34496.6 hPa South 3.1 mph /  5 km/h 6.1 mph /  9.8 km/h 97 % 0.0 in /  0 mm
12:05 11.9 °F /  -11.2 °C 11.4 °F /  -11.4 °C 1018.8 in /  34496.6 hPa South 3.2 mph /  5.1 km/h 6.1 mph /  9.8 km/h 97 % 0.0 in /  0 mm
12:10 12.1 °F /  -11.1 °C 11.6 °F /  -11.3 °C 1018.8 in /  34496.6 hPa South 4.0 mph /  6.4 km/h 6.1 mph /  9.8 km/h 97 % 0.0 in /  0 mm
12:11 12.1 °F /  -11.1 °C 11.6 °F /  -11.3 °C 1018.8 in /  34496.6 hPa South 4.0 mph /  6.4 km/h 6.1 mph /  9.8 km/h 97 % 0.0 in /  0 mm
12:16 12.4 °F /  -10.9 °C 11.9 °F /  -11.2 °C 1018.2 in /  34476.3 hPa South 3.4 mph /  5.5 km/h 6.1 mph /  9.8 km/h 97 % 0.0 in /  0 mm
12:18 12.5 °F /  -10.8 °C 12.1 °F /  -11.1 °C 1018.2 in /  34476.3 hPa South 3.2 mph /  5.1 km/h 6.1 mph /  9.8 km/h 97 % 0.0 in /  0 mm
12:23 12.6 °F /  -10.8 °C 12.1 °F /  -11.1 °C 1018.2 in /  34476.3 hPa South 2.4 mph /  3.9 km/h 4.7 mph /  7.6 km/h 97 % 0.0 in /  0 mm
12:25 12.7 °F /  -10.7 °C 12.2 °F /  -11 °C 1018.2 in /  34476.3 hPa South 2.4 mph /  3.9 km/h 4.7 mph /  7.6 km/h 97 % 0.0 in /  0 mm
12:31 13.0 °F /  -10.6 °C 12.6 °F /  -10.8 °C 1018.2 in /  34476.3 hPa South 2.1 mph /  3.4 km/h 4.7 mph /  7.6 km/h 97 % 0.0 in /  0 mm
12:35 13.3 °F /  -10.4 °C 12.8 °F /  -10.7 °C 1018.2 in /  34476.3 hPa SW 1.6 mph /  2.6 km/h 9.0 mph /  14.5 km/h 97 % 0.0 in /  0 mm
12:40 13.5 °F /  -10.3 °C 13.1 °F /  -10.5 °C 1018.2 in /  34476.3 hPa WSW 2.7 mph /  4.3 km/h 9.0 mph /  14.5 km/h 97 % 0.0 in /  0 mm
12:43 13.5 °F /  -10.3 °C 13.1 °F /  -10.5 °C 1018.8 in /  34496.6 hPa WSW 3.2 mph /  5.1 km/h 9.0 mph /  14.5 km/h 97 % 0.0 in /  0 mm
12:48 13.5 °F /  -10.3 °C 12.9 °F /  -10.6 °C 1018.8 in /  34496.6 hPa WSW 3.1 mph /  5 km/h 6.4 mph /  10.3 km/h 96 % 0.0 in /  0 mm
12:51 13.5 °F /  -10.3 °C 12.9 °F /  -10.6 °C 1018.8 in /  34496.6 hPa West 2.1 mph /  3.4 km/h 6.4 mph /  10.3 km/h 96 % 0.0 in /  0 mm
12:56 13.6 °F /  -10.2 °C 13.0 °F /  -10.6 °C 1018.8 in /  34496.6 hPa West 2.6 mph /  4.2 km/h 6.9 mph /  11.1 km/h 96 % 0.0 in /  0 mm
12:59 13.6 °F /  -10.2 °C 13.0 °F /  -10.6 °C 1018.8 in /  34496.6 hPa WSW 2.7 mph /  4.3 km/h 6.9 mph /  11.1 km/h 96 % 0.0 in /  0 mm
13:05 13.5 °F /  -10.3 °C 12.7 °F /  -10.7 °C 1018.8 in /  34496.6 hPa SW 3.1 mph /  5 km/h 5.8 mph /  9.3 km/h 95 % 0.0 in /  0 mm
13:10 13.5 °F /  -10.3 °C 12.7 °F /  -10.7 °C 1018.8 in /  34496.6 hPa WSW 3.2 mph /  5.1 km/h 6.4 mph /  10.3 km/h 95 % 0.0 in /  0 mm
13:14 13.5 °F /  -10.3 °C 12.7 °F /  -10.7 °C 1018.8 in /  34496.6 hPa West 1.8 mph /  2.9 km/h 6.4 mph /  10.3 km/h 95 % 0.0 in /  0 mm
13:19 13.5 °F /  -10.3 °C 12.6 °F /  -10.8 °C 1018.8 in /  34496.6 hPa WSW 1.3 mph /  2.1 km/h 6.9 mph /  11.1 km/h 94 % 0.0 in /  0 mm
13:29 13.6 °F /  -10.2 °C 12.5 °F /  -10.8 °C 1018.2 in /  34476.3 hPa WSW 1.8 mph /  2.9 km/h 5.0 mph /  8 km/h 93 % 0.0 in /  0 mm
13:34 13.6 °F /  -10.2 °C 12.5 °F /  -10.8 °C 1018.2 in /  34476.3 hPa West 1.6 mph /  2.6 km/h 5.8 mph /  9.3 km/h 93 % 0.0 in /  0 mm
13:39 13.7 °F /  -10.2 °C 12.6 °F /  -10.8 °C 1018.2 in /  34476.3 hPa WSW 1.6 mph /  2.6 km/h 5.8 mph /  9.3 km/h 93 % 0.0 in /  0 mm
13:44 13.7 °F /  -10.2 °C 12.4 °F /  -10.9 °C 1018.8 in /  34496.6 hPa WNW 1.6 mph /  2.6 km/h 9.0 mph /  14.5 km/h 92 % 0.0 in /  0 mm
13:49 13.7 °F /  -10.2 °C 12.4 °F /  -10.9 °C 1018.8 in /  34496.6 hPa West 4.2 mph /  6.8 km/h 10.5 mph /  16.9 km/h 92 % 0.0 in /  0 mm
13:54 13.7 °F /  -10.2 °C 12.3 °F /  -10.9 °C 1018.8 in /  34496.6 hPa West 4.0 mph /  6.4 km/h 10.5 mph /  16.9 km/h 91 % 0.0 in /  0 mm
14:00 13.7 °F /  -10.2 °C 12.1 °F /  -11.1 °C 1018.2 in /  34476.3 hPa West 2.4 mph /  3.9 km/h 5.8 mph /  9.3 km/h 90 % 0.0 in /  0 mm
14:05 13.7 °F /  -10.2 °C 12.1 °F /  -11.1 °C 1018.2 in /  34476.3 hPa WSW 3.1 mph /  5 km/h 8.7 mph /  14 km/h 90 % 0.0 in /  0 mm
14:07 13.7 °F /  -10.2 °C 12.1 °F /  -11.1 °C 1018.2 in /  34476.3 hPa WSW 3.7 mph /  6 km/h 8.7 mph /  14 km/h 90 % 0.0 in /  0 mm
14:12 13.7 °F /  -10.2 °C 11.9 °F /  -11.2 °C 1018.8 in /  34496.6 hPa WSW 3.4 mph /  5.5 km/h 8.7 mph /  14 km/h 89 % 0.0 in /  0 mm
14:17 13.7 °F /  -10.2 °C 11.7 °F /  -11.3 °C 1018.8 in /  34496.6 hPa WSW 1.6 mph /  2.6 km/h 5.0 mph /  8 km/h 88 % 0.0 in /  0 mm
14:23 13.6 °F /  -10.2 °C 11.7 °F /  -11.3 °C 1018.8 in /  34496.6 hPa WSW 0.8 mph /  1.3 km/h 4.0 mph /  6.4 km/h 88 % 0.0 in /  0 mm
14:28 13.6 °F /  -10.2 °C 11.5 °F /  -11.4 °C 1018.8 in /  34496.6 hPa WSW 0.3 mph /  0.5 km/h 2.1 mph /  3.4 km/h 87 % 0.0 in /  0 mm
14:30 13.6 °F /  -10.2 °C 11.5 °F /  -11.4 °C 1018.8 in /  34496.6 hPa Calm   4.3 mph /  6.9 km/h 87 % 0.0 in /  0 mm
14:33 13.6 °F /  -10.2 °C 11.5 °F /  -11.4 °C 1018.8 in /  34496.6 hPa WSW 0.3 mph /  0.5 km/h 4.3 mph /  6.9 km/h 87 % 0.0 in /  0 mm
14:38 13.6 °F /  -10.2 °C 11.3 °F /  -11.5 °C 1018.8 in /  34496.6 hPa WSW 0.3 mph /  0.5 km/h 4.3 mph /  6.9 km/h 86 % 0.0 in /  0 mm
14:40 13.6 °F /  -10.2 °C 11.3 °F /  -11.5 °C 1018.8 in /  34496.6 hPa WNW 0.6 mph /  1 km/h 4.7 mph /  7.6 km/h 86 % 0.0 in /  0 mm
14:46 13.6 °F /  -10.2 °C 11.1 °F /  -11.6 °C 1018.8 in /  34496.6 hPa NW 2.1 mph /  3.4 km/h 5.0 mph /  8 km/h 85 % 0.0 in /  0 mm
14:49 13.5 °F /  -10.3 °C 11.0 °F /  -11.7 °C 1018.8 in /  34496.6 hPa NW 2.3 mph /  3.7 km/h 5.0 mph /  8 km/h 85 % 0.0 in /  0 mm
14:54 13.5 °F /  -10.3 °C 11.0 °F /  -11.7 °C 1018.8 in /  34496.6 hPa West 1.3 mph /  2.1 km/h 4.7 mph /  7.6 km/h 85 % 0.0 in /  0 mm
14:55 13.5 °F /  -10.3 °C 11.0 °F /  -11.7 °C 1018.8 in /  34496.6 hPa West 1.0 mph /  1.6 km/h 4.7 mph /  7.6 km/h 85 % 0.0 in /  0 mm
15:00 13.5 °F /  -10.3 °C 10.8 °F /  -11.8 °C 1018.8 in /  34496.6 hPa WSW 0.3 mph /  0.5 km/h 4.7 mph /  7.6 km/h 84 % 0.0 in /  0 mm
15:02 13.5 °F /  -10.3 °C 10.8 °F /  -11.8 °C 1018.8 in /  34496.6 hPa Calm   2.6 mph /  4.2 km/h 84 % 0.0 in /  0 mm
15:07 13.4 °F /  -10.3 °C 10.8 °F /  -11.8 °C 1018.8 in /  34496.6 hPa West 0.5 mph /  0.8 km/h 3.2 mph /  5.1 km/h 84 % 0.0 in /  0 mm
15:11 13.4 °F /  -10.3 °C 10.8 °F /  -11.8 °C 1018.8 in /  34496.6 hPa West 0.5 mph /  0.8 km/h 3.2 mph /  5.1 km/h 84 % 0.0 in /  0 mm
15:16 13.4 °F /  -10.3 °C 10.8 °F /  -11.8 °C 1019.9 in /  34533.8 hPa WSW 0.5 mph /  0.8 km/h 3.5 mph /  5.6 km/h 84 % 0.0 in /  0 mm
15:21 13.3 °F /  -10.4 °C 10.7 °F /  -11.8 °C 1019.9 in /  34533.8 hPa West 1.8 mph /  2.9 km/h 4.0 mph /  6.4 km/h 84 % 0.0 in /  0 mm
15:26 13.2 °F /  -10.4 °C 10.4 °F /  -12 °C 1019.9 in /  34533.8 hPa West 2.9 mph /  4.7 km/h 5.8 mph /  9.3 km/h 83 % 0.0 in /  0 mm
15:29 13.2 °F /  -10.4 °C 10.4 °F /  -12 °C 1019.9 in /  34533.8 hPa West 2.7 mph /  4.3 km/h 5.8 mph /  9.3 km/h 83 % 0.0 in /  0 mm
15:36 13.0 °F /  -10.6 °C 10.2 °F /  -12.1 °C 1019.9 in /  34533.8 hPa WSW 0.6 mph /  1 km/h 4.0 mph /  6.4 km/h 83 % 0.0 in /  0 mm
15:42 12.8 °F /  -10.7 °C 10.0 °F /  -12.2 °C 1019.9 in /  34533.8 hPa Calm     83 % 0.0 in /  0 mm
15:45 12.7 °F /  -10.7 °C 9.9 °F /  -12.3 °C 1019.9 in /  34533.8 hPa Calm     83 % 0.0 in /  0 mm
15:50 12.5 °F /  -10.8 °C 9.7 °F /  -12.4 °C 1019.9 in /  34533.8 hPa Calm     83 % 0.0 in /  0 mm
15:51 12.4 °F /  -10.9 °C 9.6 °F /  -12.4 °C 1019.9 in /  34533.8 hPa Calm     83 % 0.0 in /  0 mm
15:56 12.3 °F /  -10.9 °C 9.5 °F /  -12.5 °C 1019.9 in /  34533.8 hPa Calm     83 % 0.0 in /  0 mm
16:01 12.0 °F /  -11.1 °C 9.2 °F /  -12.7 °C 1020.9 in /  34567.7 hPa Calm     83 % 0.0 in /  0 mm
16:06 11.8 °F /  -11.2 °C 9.0 °F /  -12.8 °C 1020.9 in /  34567.7 hPa Calm     83 % 0.0 in /  0 mm
16:11 11.5 °F /  -11.4 °C 8.7 °F /  -12.9 °C 1020.9 in /  34567.7 hPa Calm     83 % 0.0 in /  0 mm
16:12 11.5 °F /  -11.4 °C 8.7 °F /  -12.9 °C 1020.9 in /  34567.7 hPa Calm     83 % 0.0 in /  0 mm
16:17 11.1 °F /  -11.6 °C 8.3 °F /  -13.2 °C 1020.9 in /  34567.7 hPa Calm     83 % 0.0 in /  0 mm
16:22 10.8 °F /  -11.8 °C 8.0 °F /  -13.3 °C 1020.9 in /  34567.7 hPa Calm     83 % 0.0 in /  0 mm
16:27 10.6 °F /  -11.9 °C 7.8 °F /  -13.4 °C 1020.9 in /  34567.7 hPa Calm     83 % 0.0 in /  0 mm
16:28 10.6 °F /  -11.9 °C 7.8 °F /  -13.4 °C 1020.9 in /  34567.7 hPa Calm     83 % 0.0 in /  0 mm
16:33 10.3 °F /  -12.1 °C 7.6 °F /  -13.6 °C 1020.9 in /  34567.7 hPa Calm     83 % 0.0 in /  0 mm
16:37 10.2 °F /  -12.1 °C 7.4 °F /  -13.7 °C 1020.9 in /  34567.7 hPa Calm     83 % 0.0 in /  0 mm
16:42 9.9 °F /  -12.3 °C 7.3 °F /  -13.7 °C 1020.9 in /  34567.7 hPa Calm     84 % 0.0 in /  0 mm
16:47 9.7 °F /  -12.4 °C 7.1 °F /  -13.8 °C 1021.9 in /  34601.5 hPa Calm     84 % 0.0 in /  0 mm
16:52 9.5 °F /  -12.5 °C 6.9 °F /  -13.9 °C 1021.9 in /  34601.5 hPa Calm     84 % 0.0 in /  0 mm
16:57 9.3 °F /  -12.6 °C 6.7 °F /  -14.1 °C 1019.9 in /  34533.8 hPa Calm     84 % 0.0 in /  0 mm
17:08 8.8 °F /  -12.9 °C 6.4 °F /  -14.2 °C 1019.9 in /  34533.8 hPa Calm   5.0 mph /  8 km/h 85 % 0.0 in /  0 mm
17:13 8.6 °F /  -13 °C 6.2 °F /  -14.3 °C 1020.9 in /  34567.7 hPa NW 1.3 mph /  2.1 km/h 5.5 mph /  8.9 km/h 85 % 0.0 in /  0 mm
17:14 8.6 °F /  -13 °C 6.2 °F /  -14.3 °C 1020.9 in /  34567.7 hPa NW 1.3 mph /  2.1 km/h 5.5 mph /  8.9 km/h 85 % 0.0 in /  0 mm
17:19 8.4 °F /  -13.1 °C 6.0 °F /  -14.4 °C 1020.9 in /  34567.7 hPa NW 0.8 mph /  1.3 km/h 4.3 mph /  6.9 km/h 85 % 0.0 in /  0 mm
17:24 8.1 °F /  -13.3 °C 5.7 °F /  -14.6 °C 1020.9 in /  34567.7 hPa NNW 0.3 mph /  0.5 km/h 4.3 mph /  6.9 km/h 85 % 0.0 in /  0 mm
17:31 7.9 °F /  -13.4 °C 5.7 °F /  -14.6 °C 1020.9 in /  34567.7 hPa NW 1.4 mph /  2.3 km/h 4.3 mph /  6.9 km/h 86 % 0.0 in /  0 mm
17:34 7.9 °F /  -13.4 °C 5.7 °F /  -14.6 °C 1020.9 in /  34567.7 hPa NW 1.4 mph /  2.3 km/h 4.3 mph /  6.9 km/h 86 % 0.0 in /  0 mm
17:39 7.6 °F /  -13.6 °C 5.4 °F /  -14.8 °C 1020.9 in /  34567.7 hPa Calm     86 % 0.0 in /  0 mm
17:44 7.4 °F /  -13.7 °C 5.2 °F /  -14.9 °C 1020.9 in /  34567.7 hPa Calm     86 % 0.0 in /  0 mm
17:49 7.3 °F /  -13.7 °C 5.1 °F /  -14.9 °C 1020.9 in /  34567.7 hPa Calm     86 % 0.0 in /  0 mm
17:54 7.1 °F /  -13.8 °C 4.9 °F /  -15.1 °C 1020.9 in /  34567.7 hPa Calm     86 % 0.0 in /  0 mm
17:59 7.0 °F /  -13.9 °C 4.8 °F /  -15.1 °C 1020.9 in /  34567.7 hPa Calm     86 % 0.0 in /  0 mm
18:00 7.0 °F /  -13.9 °C 4.8 °F /  -15.1 °C 1020.9 in /  34567.7 hPa Calm     86 % 0.0 in /  0 mm
18:05 6.9 °F /  -13.9 °C 4.9 °F /  -15.1 °C 1020.9 in /  34567.7 hPa Calm     87 % 0.0 in /  0 mm
18:10 6.8 °F /  -14 °C 4.8 °F /  -15.1 °C 1020.9 in /  34567.7 hPa Calm     87 % 0.0 in /  0 mm
18:15 6.8 °F /  -14 °C 4.8 °F /  -15.1 °C 1020.9 in /  34567.7 hPa Calm     87 % 0.0 in /  0 mm
18:20 6.7 °F /  -14.1 °C 4.7 °F /  -15.2 °C 1020.9 in /  34567.7 hPa Calm     87 % 0.0 in /  0 mm
18:21 6.7 °F /  -14.1 °C 4.7 °F /  -15.2 °C 1020.9 in /  34567.7 hPa Calm     87 % 0.0 in /  0 mm
18:26 6.6 °F /  -14.1 °C 4.8 °F /  -15.1 °C 1020.9 in /  34567.7 hPa Calm     88 % 0.0 in /  0 mm
18:30 6.5 °F /  -14.2 °C 4.7 °F /  -15.2 °C 1021.9 in /  34601.5 hPa WNW 0.2 mph /  0.3 km/h 4.3 mph /  6.9 km/h 88 % 0.0 in /  0 mm
18:35 6.4 °F /  -14.2 °C 4.6 °F /  -15.2 °C 1021.9 in /  34601.5 hPa WNW 0.2 mph /  0.3 km/h 4.3 mph /  6.9 km/h 88 % 0.0 in /  0 mm
18:40 6.4 °F /  -14.2 °C 4.6 °F /  -15.2 °C 1021.9 in /  34601.5 hPa NW 0.5 mph /  0.8 km/h 3.5 mph /  5.6 km/h 88 % 0.0 in /  0 mm
18:45 6.3 °F /  -14.3 °C 4.4 °F /  -15.3 °C 1020.9 in /  34567.7 hPa NW 0.5 mph /  0.8 km/h 3.5 mph /  5.6 km/h 88 % 0.0 in /  0 mm
18:50 6.3 °F /  -14.3 °C 4.6 °F /  -15.2 °C 1020.9 in /  34567.7 hPa Calm     89 % 0.0 in /  0 mm
18:54 6.3 °F /  -14.3 °C 4.6 °F /  -15.2 °C 1020.9 in /  34567.7 hPa Calm     89 % 0.0 in /  0 mm
18:59 6.1 °F /  -14.4 °C 4.4 °F /  -15.3 °C 1021.9 in /  34601.5 hPa Calm     89 % 0.0 in /  0 mm
19:04 6.1 °F /  -14.4 °C 4.4 °F /  -15.3 °C 1021.9 in /  34601.5 hPa Calm     89 % 0.0 in /  0 mm
19:09 6.1 °F /  -14.4 °C 4.4 °F /  -15.3 °C 1021.9 in /  34601.5 hPa Calm     89 % 0.0 in /  0 mm
19:14 6.0 °F /  -14.4 °C 4.5 °F /  -15.3 °C 1022.9 in /  34635.4 hPa Calm     90 % 0.0 in /  0 mm
19:18 6.0 °F /  -14.4 °C 4.5 °F /  -15.3 °C 1022.9 in /  34635.4 hPa Calm     90 % 0.0 in /  0 mm
19:24 6.0 °F /  -14.4 °C 4.5 °F /  -15.3 °C 1022.9 in /  34635.4 hPa Calm     90 % 0.0 in /  0 mm
19:25 5.9 °F /  -14.5 °C 4.6 °F /  -15.2 °C 1022.9 in /  34635.4 hPa Calm     91 % 0.0 in /  0 mm
19:31 5.8 °F /  -14.6 °C 4.4 °F /  -15.3 °C 1021.9 in /  34601.5 hPa Calm     91 % 0.0 in /  0 mm
19:36 5.8 °F /  -14.6 °C 4.4 °F /  -15.3 °C 1021.9 in /  34601.5 hPa Calm     91 % 0.0 in /  0 mm
19:40 5.9 °F /  -14.5 °C 4.6 °F /  -15.2 °C 1021.9 in /  34601.5 hPa Calm     91 % 0.0 in /  0 mm
19:44 5.8 °F /  -14.6 °C 4.4 °F /  -15.3 °C 1022.9 in /  34635.4 hPa Calm     91 % 0.0 in /  0 mm
19:47 5.9 °F /  -14.5 °C 4.6 °F /  -15.2 °C 1022.9 in /  34635.4 hPa Calm     91 % 0.0 in /  0 mm
19:52 5.9 °F /  -14.5 °C 4.7 °F /  -15.2 °C 1022.9 in /  34635.4 hPa Calm     92 % 0.0 in /  0 mm
19:54 5.9 °F /  -14.5 °C 4.7 °F /  -15.2 °C 1022.9 in /  34635.4 hPa Calm     92 % 0.0 in /  0 mm
19:58 5.8 °F /  -14.6 °C 4.6 °F /  -15.2 °C 1022.9 in /  34635.4 hPa Calm     92 % 0.0 in /  0 mm
20:03 5.8 °F /  -14.6 °C 4.6 °F /  -15.2 °C 1022.9 in /  34635.4 hPa Calm     92 % 0.0 in /  0 mm
20:08 5.8 °F /  -14.6 °C 4.6 °F /  -15.2 °C 1022.9 in /  34635.4 hPa Calm     92 % 0.0 in /  0 mm
20:10 5.8 °F /  -14.6 °C 4.6 °F /  -15.2 °C 1022.9 in /  34635.4 hPa Calm     92 % 0.0 in /  0 mm
20:15 5.8 °F /  -14.6 °C 4.6 °F /  -15.2 °C 1022.9 in /  34635.4 hPa Calm     92 % 0.0 in /  0 mm
20:19 5.9 °F /  -14.5 °C 4.8 °F /  -15.1 °C 1022.9 in /  34635.4 hPa Calm     93 % 0.0 in /  0 mm
20:21 5.9 °F /  -14.5 °C 4.8 °F /  -15.1 °C 1022.9 in /  34635.4 hPa Calm     93 % 0.0 in /  0 mm
20:26 5.9 °F /  -14.5 °C 4.8 °F /  -15.1 °C 1022.9 in /  34635.4 hPa Calm     93 % 0.0 in /  0 mm
20:28 6.0 °F /  -14.4 °C 4.9 °F /  -15.1 °C 1022.9 in /  34635.4 hPa Calm     93 % 0.0 in /  0 mm
20:34 6.0 °F /  -14.4 °C 4.9 °F /  -15.1 °C 1022.9 in /  34635.4 hPa Calm     93 % 0.0 in /  0 mm
20:39 6.0 °F /  -14.4 °C 4.9 °F /  -15.1 °C 1022.9 in /  34635.4 hPa Calm     93 % 0.0 in /  0 mm
20:44 6.0 °F /  -14.4 °C 4.9 °F /  -15.1 °C 1022.9 in /  34635.4 hPa Calm     93 % 0.0 in /  0 mm
20:49 5.9 °F /  -14.5 °C 4.8 °F /  -15.1 °C 1022.9 in /  34635.4 hPa Calm     93 % 0.0 in /  0 mm
20:54 5.9 °F /  -14.5 °C 5.0 °F /  -15 °C 1022.9 in /  34635.4 hPa Calm     94 % 0.0 in /  0 mm
20:59 5.9 °F /  -14.5 °C 5.0 °F /  -15 °C 1021.9 in /  34601.5 hPa Calm     94 % 0.0 in /  0 mm
21:04 5.8 °F /  -14.6 °C 4.9 °F /  -15.1 °C 1021.9 in /  34601.5 hPa Calm     94 % 0.0 in /  0 mm
21:09 5.8 °F /  -14.6 °C 4.9 °F /  -15.1 °C 1021.9 in /  34601.5 hPa Calm     94 % 0.0 in /  0 mm
21:14 5.7 °F /  -14.6 °C 4.8 °F /  -15.1 °C 1022.9 in /  34635.4 hPa Calm     94 % 0.0 in /  0 mm
21:15 5.7 °F /  -14.6 °C 4.8 °F /  -15.1 °C 1022.9 in /  34635.4 hPa Calm     94 % 0.0 in /  0 mm
21:20 5.6 °F /  -14.7 °C 4.7 °F /  -15.2 °C 1022.9 in /  34635.4 hPa Calm     94 % 0.0 in /  0 mm
21:25 5.6 °F /  -14.7 °C 4.7 °F /  -15.2 °C 1022.9 in /  34635.4 hPa Calm     94 % 0.0 in /  0 mm
21:36 5.6 °F /  -14.7 °C 4.7 °F /  -15.2 °C 1022.9 in /  34635.4 hPa Calm     94 % 0.0 in /  0 mm
21:41 5.5 °F /  -14.7 °C 4.6 °F /  -15.2 °C 1022.9 in /  34635.4 hPa Calm     94 % 0.0 in /  0 mm
21:46 5.4 °F /  -14.8 °C 4.5 °F /  -15.3 °C 1021.9 in /  34601.5 hPa Calm     94 % 0.0 in /  0 mm
21:50 5.4 °F /  -14.8 °C 4.5 °F /  -15.3 °C 1021.9 in /  34601.5 hPa Calm     94 % 0.0 in /  0 mm
21:56 5.3 °F /  -14.8 °C 4.4 °F /  -15.3 °C 1021.9 in /  34601.5 hPa Calm     94 % 0.0 in /  0 mm
22:01 5.3 °F /  -14.8 °C 4.4 °F /  -15.3 °C 1022.9 in /  34635.4 hPa Calm     94 % 0.0 in /  0 mm
22:07 5.2 °F /  -14.9 °C 4.3 °F /  -15.4 °C 1022.9 in /  34635.4 hPa Calm     94 % 0.0 in /  0 mm
22:12 5.1 °F /  -14.9 °C 4.2 °F /  -15.4 °C 1021.9 in /  34601.5 hPa Calm     94 % 0.0 in /  0 mm
22:17 5.1 °F /  -14.9 °C 4.2 °F /  -15.4 °C 1021.9 in /  34601.5 hPa Calm     94 % 0.0 in /  0 mm
22:22 5.0 °F /  -15 °C 4.3 °F /  -15.4 °C 1021.9 in /  34601.5 hPa Calm     95 % 0.0 in /  0 mm
22:27 4.9 °F /  -15.1 °C 4.2 °F /  -15.4 °C 1022.9 in /  34635.4 hPa Calm     95 % 0.0 in /  0 mm
22:32 4.9 °F /  -15.1 °C 4.2 °F /  -15.4 °C 1022.9 in /  34635.4 hPa Calm     95 % 0.0 in /  0 mm
22:37 4.8 °F /  -15.1 °C 4.1 °F /  -15.5 °C 1022.9 in /  34635.4 hPa Calm     95 % 0.0 in /  0 mm
22:41 4.8 °F /  -15.1 °C 4.1 °F /  -15.5 °C 1022.9 in /  34635.4 hPa Calm     95 % 0.0 in /  0 mm
22:45 4.8 °F /  -15.1 °C 4.1 °F /  -15.5 °C 1021.9 in /  34601.5 hPa Calm     95 % 0.0 in /  0 mm
22:50 4.7 °F /  -15.2 °C 3.9 °F /  -15.6 °C 1021.9 in /  34601.5 hPa Calm     95 % 0.0 in /  0 mm
22:56 4.6 °F /  -15.2 °C 3.9 °F /  -15.6 °C 1021.9 in /  34601.5 hPa Calm     95 % 0.0 in /  0 mm
22:57 4.6 °F /  -15.2 °C 3.9 °F /  -15.6 °C 1022.9 in /  34635.4 hPa Calm     95 % 0.0 in /  0 mm
23:02 4.6 °F /  -15.2 °C 3.9 °F /  -15.6 °C 1022.9 in /  34635.4 hPa Calm     95 % 0.0 in /  0 mm
23:07 4.5 °F /  -15.3 °C 3.8 °F /  -15.7 °C 1022.9 in /  34635.4 hPa Calm     95 % 0.0 in /  0 mm
23:09 4.5 °F /  -15.3 °C 3.8 °F /  -15.7 °C 1022.9 in /  34635.4 hPa Calm     95 % 0.0 in /  0 mm
23:14 4.4 °F /  -15.3 °C 3.7 °F /  -15.7 °C 1022.9 in /  34635.4 hPa Calm     95 % 0.0 in /  0 mm
23:19 4.4 °F /  -15.3 °C 3.7 °F /  -15.7 °C 1022.9 in /  34635.4 hPa Calm     95 % 0.0 in /  0 mm
23:22 4.3 °F /  -15.4 °C 3.6 °F /  -15.8 °C 1022.9 in /  34635.4 hPa Calm     95 % 0.0 in /  0 mm
23:27 4.3 °F /  -15.4 °C 3.6 °F /  -15.8 °C 1022.9 in /  34635.4 hPa Calm     95 % 0.0 in /  0 mm
23:32 4.1 °F /  -15.5 °C 3.4 °F /  -15.9 °C 1022.9 in /  34635.4 hPa Calm     95 % 0.0 in /  0 mm
23:37 4.1 °F /  -15.5 °C 3.4 °F /  -15.9 °C 1022.9 in /  34635.4 hPa Calm     95 % 0.0 in /  0 mm
23:43 4.1 °F /  -15.5 °C 3.4 °F /  -15.9 °C 1022.9 in /  34635.4 hPa Calm     95 % 0.0 in /  0 mm
23:44 4.1 °F /  -15.5 °C 3.4 °F /  -15.9 °C 1022.9 in /  34635.4 hPa Calm     95 % 0.0 in /  0 mm
23:49 4.1 °F /  -15.5 °C 3.4 °F /  -15.9 °C 1022.9 in /  34635.4 hPa Calm     95 % 0.0 in /  0 mm
23:55 4.0 °F /  -15.6 °C 3.3 °F /  -15.9 °C 1022.9 in /  34635.4 hPa Calm     95 % 0.0 in /  0 mm
Vremenska postaja Senovo
Podatki zbrani iz Weather Underground - 3.25 mb

Script developed by  Jim McMurry - jmcmurry@mwt.net Adapted for the template by  Wim van der Kuil - Leuven-Template.eu

Vremenski podatki so objavljeni na:

European Weather Network

WeatherCloud

Weather Underground

AWEKAS

HAMweather, WeatherForYou, PWS Weather

MapView

Geostik

Slovenia weather network

Oprema, ki se uporablja:

Vremenski program
Cumulus

Vremenski server
Asus

Cumulus

Asus